sensor_id;sensor_type;location;lat;lon;timestamp;P1;durP1;ratioP1;P2;durP2;ratioP2
5085;SDS011;4715;51.660;7.082;2023-04-06T00:01:28;6.00;;;5.07;;
5085;SDS011;4715;51.660;7.082;2023-04-06T00:03:50;6.60;;;5.33;;
5085;SDS011;4715;51.660;7.082;2023-04-06T00:06:12;7.47;;;5.60;;
5085;SDS011;4715;51.660;7.082;2023-04-06T00:08:34;6.23;;;5.37;;
5085;SDS011;4715;51.660;7.082;2023-04-06T00:10:56;5.40;;;4.90;;
5085;SDS011;4715;51.660;7.082;2023-04-06T00:13:18;6.30;;;5.63;;
5085;SDS011;4715;51.660;7.082;2023-04-06T00:15:40;8.73;;;6.67;;
5085;SDS011;4715;51.660;7.082;2023-04-06T00:18:03;5.97;;;5.37;;
5085;SDS011;4715;51.660;7.082;2023-04-06T00:20:25;5.53;;;5.07;;
5085;SDS011;4715;51.660;7.082;2023-04-06T00:22:47;6.23;;;5.47;;
5085;SDS011;4715;51.660;7.082;2023-04-06T00:25:09;8.23;;;6.07;;
5085;SDS011;4715;51.660;7.082;2023-04-06T00:27:31;7.90;;;5.93;;
5085;SDS011;4715;51.660;7.082;2023-04-06T00:29:53;9.90;;;5.97;;
5085;SDS011;4715;51.660;7.082;2023-04-06T00:32:15;5.63;;;5.20;;
5085;SDS011;4715;51.660;7.082;2023-04-06T00:34:38;5.90;;;5.30;;
5085;SDS011;4715;51.660;7.082;2023-04-06T00:37:00;8.27;;;6.27;;
5085;SDS011;4715;51.660;7.082;2023-04-06T00:39:22;6.43;;;4.80;;
5085;SDS011;4715;51.660;7.082;2023-04-06T00:41:45;6.23;;;4.70;;
5085;SDS011;4715;51.660;7.082;2023-04-06T00:44:10;7.80;;;6.10;;
5085;SDS011;4715;51.660;7.082;2023-04-06T00:46:31;5.57;;;5.00;;
5085;SDS011;4715;51.660;7.082;2023-04-06T00:48:53;5.07;;;4.63;;
5085;SDS011;4715;51.660;7.082;2023-04-06T00:51:17;6.10;;;5.50;;
5085;SDS011;4715;51.660;7.082;2023-04-06T00:53:39;5.80;;;5.30;;
5085;SDS011;4715;51.660;7.082;2023-04-06T00:56:01;7.73;;;5.93;;
5085;SDS011;4715;51.660;7.082;2023-04-06T00:58:23;5.90;;;4.93;;
5085;SDS011;4715;51.660;7.082;2023-04-06T01:00:45;7.30;;;5.33;;
5085;SDS011;4715;51.660;7.082;2023-04-06T01:03:07;5.40;;;4.90;;
5085;SDS011;4715;51.660;7.082;2023-04-06T01:05:29;8.47;;;5.33;;
5085;SDS011;4715;51.660;7.082;2023-04-06T01:07:52;6.07;;;4.67;;
5085;SDS011;4715;51.660;7.082;2023-04-06T01:10:21;9.20;;;6.40;;
5085;SDS011;4715;51.660;7.082;2023-04-06T01:12:44;8.70;;;5.47;;
5085;SDS011;4715;51.660;7.082;2023-04-06T01:15:06;5.83;;;5.23;;
5085;SDS011;4715;51.660;7.082;2023-04-06T01:17:30;7.97;;;6.27;;
5085;SDS011;4715;51.660;7.082;2023-04-06T01:19:52;5.93;;;5.33;;
5085;SDS011;4715;51.660;7.082;2023-04-06T01:22:16;8.90;;;5.97;;
5085;SDS011;4715;51.660;7.082;2023-04-06T01:24:38;8.50;;;5.93;;
5085;SDS011;4715;51.660;7.082;2023-04-06T01:27:00;6.23;;;5.60;;
5085;SDS011;4715;51.660;7.082;2023-04-06T01:29:22;7.33;;;5.73;;
5085;SDS011;4715;51.660;7.082;2023-04-06T01:31:44;6.40;;;5.87;;
5085;SDS011;4715;51.660;7.082;2023-04-06T01:34:06;10.57;;;6.47;;
5085;SDS011;4715;51.660;7.082;2023-04-06T01:36:28;8.73;;;5.70;;
5085;SDS011;4715;51.660;7.082;2023-04-06T01:38:51;6.63;;;5.97;;
5085;SDS011;4715;51.660;7.082;2023-04-06T01:41:13;9.00;;;5.83;;
5085;SDS011;4715;51.660;7.082;2023-04-06T01:43:35;6.77;;;5.70;;
5085;SDS011;4715;51.660;7.082;2023-04-06T01:45:57;5.97;;;5.07;;
5085;SDS011;4715;51.660;7.082;2023-04-06T01:48:19;7.20;;;5.07;;
5085;SDS011;4715;51.660;7.082;2023-04-06T01:50:40;6.97;;;5.33;;
5085;SDS011;4715;51.660;7.082;2023-04-06T01:53:02;5.97;;;5.37;;
5085;SDS011;4715;51.660;7.082;2023-04-06T01:55:26;5.70;;;5.13;;
5085;SDS011;4715;51.660;7.082;2023-04-06T01:57:47;6.93;;;5.70;;
5085;SDS011;4715;51.660;7.082;2023-04-06T02:00:10;7.33;;;4.93;;
5085;SDS011;4715;51.660;7.082;2023-04-06T02:02:32;5.53;;;4.93;;
5085;SDS011;4715;51.660;7.082;2023-04-06T02:04:54;6.70;;;5.47;;
5085;SDS011;4715;51.660;7.082;2023-04-06T02:07:16;6.97;;;6.23;;
5085;SDS011;4715;51.660;7.082;2023-04-06T02:09:38;9.00;;;7.40;;
5085;SDS011;4715;51.660;7.082;2023-04-06T02:12:01;9.63;;;6.27;;
5085;SDS011;4715;51.660;7.082;2023-04-06T02:14:24;7.60;;;6.27;;
5085;SDS011;4715;51.660;7.082;2023-04-06T02:16:47;10.33;;;6.37;;
5085;SDS011;4715;51.660;7.082;2023-04-06T02:19:09;8.33;;;5.97;;
5085;SDS011;4715;51.660;7.082;2023-04-06T02:21:31;8.73;;;6.80;;
5085;SDS011;4715;51.660;7.082;2023-04-06T02:23:53;10.00;;;7.30;;
5085;SDS011;4715;51.660;7.082;2023-04-06T02:26:15;6.57;;;5.77;;
5085;SDS011;4715;51.660;7.082;2023-04-06T02:28:38;9.70;;;7.03;;
5085;SDS011;4715;51.660;7.082;2023-04-06T02:31:00;7.93;;;5.90;;
5085;SDS011;4715;51.660;7.082;2023-04-06T02:33:22;8.30;;;6.13;;
5085;SDS011;4715;51.660;7.082;2023-04-06T02:35:44;7.60;;;6.43;;
5085;SDS011;4715;51.660;7.082;2023-04-06T02:38:06;7.30;;;5.90;;
5085;SDS011;4715;51.660;7.082;2023-04-06T02:40:28;8.30;;;5.37;;
5085;SDS011;4715;51.660;7.082;2023-04-06T02:42:50;7.70;;;6.37;;
5085;SDS011;4715;51.660;7.082;2023-04-06T02:45:13;7.97;;;6.07;;
5085;SDS011;4715;51.660;7.082;2023-04-06T02:47:36;6.13;;;5.30;;
5085;SDS011;4715;51.660;7.082;2023-04-06T02:49:58;5.67;;;4.50;;
5085;SDS011;4715;51.660;7.082;2023-04-06T02:52:20;6.53;;;5.63;;
5085;SDS011;4715;51.660;7.082;2023-04-06T02:54:42;5.20;;;4.70;;
5085;SDS011;4715;51.660;7.082;2023-04-06T02:57:04;8.57;;;4.60;;
5085;SDS011;4715;51.660;7.082;2023-04-06T02:59:25;8.00;;;5.67;;
5085;SDS011;4715;51.660;7.082;2023-04-06T03:01:49;6.30;;;5.43;;
5085;SDS011;4715;51.660;7.082;2023-04-06T03:04:11;6.90;;;4.80;;
5085;SDS011;4715;51.660;7.082;2023-04-06T03:06:32;6.63;;;4.87;;
5085;SDS011;4715;51.660;7.082;2023-04-06T03:08:54;7.50;;;5.33;;
5085;SDS011;4715;51.660;7.082;2023-04-06T03:11:16;8.50;;;6.33;;
5085;SDS011;4715;51.660;7.082;2023-04-06T03:13:38;7.23;;;6.53;;
5085;SDS011;4715;51.660;7.082;2023-04-06T03:16:00;9.20;;;6.50;;
5085;SDS011;4715;51.660;7.082;2023-04-06T03:18:24;5.70;;;5.03;;
5085;SDS011;4715;51.660;7.082;2023-04-06T03:20:46;7.67;;;5.90;;
5085;SDS011;4715;51.660;7.082;2023-04-06T03:23:08;7.43;;;5.70;;
5085;SDS011;4715;51.660;7.082;2023-04-06T03:25:30;6.33;;;5.73;;
5085;SDS011;4715;51.660;7.082;2023-04-06T03:27:52;7.33;;;5.43;;
5085;SDS011;4715;51.660;7.082;2023-04-06T03:30:14;7.17;;;6.40;;
5085;SDS011;4715;51.660;7.082;2023-04-06T03:32:37;7.70;;;6.27;;
5085;SDS011;4715;51.660;7.082;2023-04-06T03:35:01;6.07;;;5.47;;
5085;SDS011;4715;51.660;7.082;2023-04-06T03:37:25;5.80;;;4.93;;
5085;SDS011;4715;51.660;7.082;2023-04-06T03:39:47;6.80;;;5.17;;
5085;SDS011;4715;51.660;7.082;2023-04-06T03:42:11;6.13;;;5.37;;
5085;SDS011;4715;51.660;7.082;2023-04-06T03:44:34;6.23;;;5.60;;
5085;SDS011;4715;51.660;7.082;2023-04-06T03:46:58;13.00;;;6.20;;
5085;SDS011;4715;51.660;7.082;2023-04-06T03:49:20;6.87;;;5.83;;
5085;SDS011;4715;51.660;7.082;2023-04-06T03:51:47;12.23;;;6.07;;
5085;SDS011;4715;51.660;7.082;2023-04-06T03:54:09;8.80;;;6.13;;
5085;SDS011;4715;51.660;7.082;2023-04-06T03:56:31;7.13;;;6.20;;
5085;SDS011;4715;51.660;7.082;2023-04-06T03:58:53;7.70;;;5.50;;
5085;SDS011;4715;51.660;7.082;2023-04-06T04:01:15;7.70;;;5.60;;
5085;SDS011;4715;51.660;7.082;2023-04-06T04:03:38;9.63;;;5.63;;
5085;SDS011;4715;51.660;7.082;2023-04-06T04:06:01;6.47;;;5.87;;
5085;SDS011;4715;51.660;7.082;2023-04-06T04:08:25;6.60;;;5.43;;
5085;SDS011;4715;51.660;7.082;2023-04-06T04:10:48;5.77;;;4.90;;
5085;SDS011;4715;51.660;7.082;2023-04-06T04:13:11;6.60;;;5.60;;
5085;SDS011;4715;51.660;7.082;2023-04-06T04:15:33;6.87;;;5.67;;
5085;SDS011;4715;51.660;7.082;2023-04-06T04:17:58;5.43;;;4.90;;
5085;SDS011;4715;51.660;7.082;2023-04-06T04:20:22;6.37;;;5.77;;
5085;SDS011;4715;51.660;7.082;2023-04-06T04:22:46;7.33;;;5.70;;
5085;SDS011;4715;51.660;7.082;2023-04-06T04:25:10;5.93;;;5.03;;
5085;SDS011;4715;51.660;7.082;2023-04-06T04:27:32;7.50;;;6.03;;
5085;SDS011;4715;51.660;7.082;2023-04-06T04:29:57;6.90;;;5.90;;
5085;SDS011;4715;51.660;7.082;2023-04-06T04:32:19;5.87;;;4.80;;
5085;SDS011;4715;51.660;7.082;2023-04-06T04:34:41;7.17;;;5.57;;
5085;SDS011;4715;51.660;7.082;2023-04-06T04:37:05;6.17;;;5.33;;
5085;SDS011;4715;51.660;7.082;2023-04-06T04:39:27;15.40;;;7.47;;
5085;SDS011;4715;51.660;7.082;2023-04-06T04:41:50;6.67;;;5.53;;
5085;SDS011;4715;51.660;7.082;2023-04-06T04:44:13;7.07;;;5.90;;
5085;SDS011;4715;51.660;7.082;2023-04-06T04:46:41;8.57;;;5.80;;
5085;SDS011;4715;51.660;7.082;2023-04-06T04:49:06;8.00;;;5.93;;
5085;SDS011;4715;51.660;7.082;2023-04-06T04:51:28;7.27;;;5.83;;
5085;SDS011;4715;51.660;7.082;2023-04-06T04:53:51;5.60;;;5.03;;
5085;SDS011;4715;51.660;7.082;2023-04-06T04:56:13;6.13;;;5.40;;
5085;SDS011;4715;51.660;7.082;2023-04-06T04:58:37;6.77;;;4.93;;
5085;SDS011;4715;51.660;7.082;2023-04-06T05:01:01;6.60;;;4.93;;
5085;SDS011;4715;51.660;7.082;2023-04-06T05:03:24;7.33;;;5.60;;
5085;SDS011;4715;51.660;7.082;2023-04-06T05:05:47;6.70;;;6.00;;
5085;SDS011;4715;51.660;7.082;2023-04-06T05:08:11;6.97;;;5.40;;
5085;SDS011;4715;51.660;7.082;2023-04-06T05:10:36;6.47;;;5.70;;
5085;SDS011;4715;51.660;7.082;2023-04-06T05:12:59;9.33;;;5.30;;
5085;SDS011;4715;51.660;7.082;2023-04-06T05:15:22;9.20;;;6.50;;
5085;SDS011;4715;51.660;7.082;2023-04-06T05:17:50;7.57;;;6.17;;
5085;SDS011;4715;51.660;7.082;2023-04-06T05:20:12;7.27;;;6.10;;
5085;SDS011;4715;51.660;7.082;2023-04-06T05:22:34;7.87;;;7.07;;
5085;SDS011;4715;51.660;7.082;2023-04-06T05:24:56;9.80;;;6.80;;
5085;SDS011;4715;51.660;7.082;2023-04-06T05:27:21;8.07;;;6.53;;
5085;SDS011;4715;51.660;7.082;2023-04-06T05:29:45;7.50;;;5.90;;
5085;SDS011;4715;51.660;7.082;2023-04-06T05:32:10;14.00;;;6.30;;
5085;SDS011;4715;51.660;7.082;2023-04-06T05:34:33;9.50;;;5.97;;
5085;SDS011;4715;51.660;7.082;2023-04-06T05:36:55;7.83;;;6.10;;
5085;SDS011;4715;51.660;7.082;2023-04-06T05:39:17;6.80;;;5.90;;
5085;SDS011;4715;51.660;7.082;2023-04-06T05:41:40;8.43;;;6.30;;
5085;SDS011;4715;51.660;7.082;2023-04-06T05:44:04;10.13;;;6.33;;
5085;SDS011;4715;51.660;7.082;2023-04-06T05:46:26;8.73;;;6.67;;
5085;SDS011;4715;51.660;7.082;2023-04-06T05:48:50;11.10;;;6.83;;
5085;SDS011;4715;51.660;7.082;2023-04-06T05:51:13;7.47;;;6.67;;
5085;SDS011;4715;51.660;7.082;2023-04-06T05:53:39;11.63;;;6.60;;
5085;SDS011;4715;51.660;7.082;2023-04-06T05:56:01;9.13;;;7.00;;
5085;SDS011;4715;51.660;7.082;2023-04-06T05:58:23;9.60;;;6.60;;
5085;SDS011;4715;51.660;7.082;2023-04-06T06:00:45;6.30;;;5.60;;
5085;SDS011;4715;51.660;7.082;2023-04-06T06:03:07;7.17;;;5.87;;
5085;SDS011;4715;51.660;7.082;2023-04-06T06:05:30;8.60;;;5.93;;
5085;SDS011;4715;51.660;7.082;2023-04-06T06:07:52;11.37;;;7.83;;
5085;SDS011;4715;51.660;7.082;2023-04-06T06:10:14;9.07;;;6.73;;
5085;SDS011;4715;51.660;7.082;2023-04-06T06:12:36;10.70;;;7.50;;
5085;SDS011;4715;51.660;7.082;2023-04-06T06:14:57;10.97;;;7.37;;
5085;SDS011;4715;51.660;7.082;2023-04-06T06:17:20;9.70;;;7.70;;
5085;SDS011;4715;51.660;7.082;2023-04-06T06:19:42;15.23;;;7.47;;
5085;SDS011;4715;51.660;7.082;2023-04-06T06:22:05;13.00;;;7.57;;
5085;SDS011;4715;51.660;7.082;2023-04-06T06:24:27;9.83;;;7.00;;
5085;SDS011;4715;51.660;7.082;2023-04-06T06:26:51;9.83;;;7.93;;
5085;SDS011;4715;51.660;7.082;2023-04-06T06:29:13;8.97;;;7.00;;
5085;SDS011;4715;51.660;7.082;2023-04-06T06:31:35;10.07;;;6.80;;
5085;SDS011;4715;51.660;7.082;2023-04-06T06:33:57;10.60;;;7.23;;
5085;SDS011;4715;51.660;7.082;2023-04-06T06:36:19;11.03;;;7.20;;
5085;SDS011;4715;51.660;7.082;2023-04-06T06:38:42;8.03;;;7.33;;
5085;SDS011;4715;51.660;7.082;2023-04-06T06:41:04;8.57;;;6.83;;
5085;SDS011;4715;51.660;7.082;2023-04-06T06:43:26;7.50;;;6.10;;
5085;SDS011;4715;51.660;7.082;2023-04-06T06:45:48;12.23;;;6.63;;
5085;SDS011;4715;51.660;7.082;2023-04-06T06:48:11;8.87;;;6.47;;
5085;SDS011;4715;51.660;7.082;2023-04-06T06:50:33;7.27;;;6.00;;
5085;SDS011;4715;51.660;7.082;2023-04-06T06:52:55;10.00;;;6.17;;
5085;SDS011;4715;51.660;7.082;2023-04-06T06:55:19;8.40;;;7.00;;
5085;SDS011;4715;51.660;7.082;2023-04-06T06:57:40;16.03;;;9.10;;
5085;SDS011;4715;51.660;7.082;2023-04-06T07:00:03;12.03;;;8.47;;
5085;SDS011;4715;51.660;7.082;2023-04-06T07:02:27;8.20;;;6.80;;
5085;SDS011;4715;51.660;7.082;2023-04-06T07:04:49;9.73;;;6.67;;
5085;SDS011;4715;51.660;7.082;2023-04-06T07:07:11;8.13;;;6.20;;
5085;SDS011;4715;51.660;7.082;2023-04-06T07:09:34;6.30;;;5.70;;
5085;SDS011;4715;51.660;7.082;2023-04-06T07:11:57;8.13;;;6.77;;
5085;SDS011;4715;51.660;7.082;2023-04-06T07:14:21;8.73;;;5.57;;
5085;SDS011;4715;51.660;7.082;2023-04-06T07:16:44;6.37;;;5.67;;
5085;SDS011;4715;51.660;7.082;2023-04-06T07:19:07;5.97;;;5.40;;
5085;SDS011;4715;51.660;7.082;2023-04-06T07:21:30;6.57;;;5.53;;
5085;SDS011;4715;51.660;7.082;2023-04-06T07:23:54;6.17;;;5.40;;
5085;SDS011;4715;51.660;7.082;2023-04-06T07:26:16;6.90;;;5.27;;
5085;SDS011;4715;51.660;7.082;2023-04-06T07:28:39;7.17;;;5.23;;
5085;SDS011;4715;51.660;7.082;2023-04-06T07:31:02;5.03;;;4.50;;
5085;SDS011;4715;51.660;7.082;2023-04-06T07:33:25;6.03;;;5.43;;
5085;SDS011;4715;51.660;7.082;2023-04-06T07:35:49;6.50;;;5.67;;
5085;SDS011;4715;51.660;7.082;2023-04-06T07:38:12;8.80;;;6.33;;
5085;SDS011;4715;51.660;7.082;2023-04-06T07:40:36;8.37;;;6.80;;
5085;SDS011;4715;51.660;7.082;2023-04-06T07:42:59;10.00;;;7.87;;
5085;SDS011;4715;51.660;7.082;2023-04-06T07:45:24;7.33;;;5.93;;
5085;SDS011;4715;51.660;7.082;2023-04-06T07:47:47;11.00;;;6.63;;
5085;SDS011;4715;51.660;7.082;2023-04-06T07:50:14;6.97;;;5.80;;
5085;SDS011;4715;51.660;7.082;2023-04-06T07:52:48;11.30;;;6.70;;
5085;SDS011;4715;51.660;7.082;2023-04-06T07:55:11;6.83;;;6.10;;
5085;SDS011;4715;51.660;7.082;2023-04-06T07:57:33;7.97;;;6.17;;
5085;SDS011;4715;51.660;7.082;2023-04-06T07:59:56;7.83;;;6.07;;
5085;SDS011;4715;51.660;7.082;2023-04-06T08:02:20;8.90;;;7.00;;
5085;SDS011;4715;51.660;7.082;2023-04-06T08:04:45;7.60;;;6.87;;
5085;SDS011;4715;51.660;7.082;2023-04-06T08:07:11;8.07;;;6.33;;
5085;SDS011;4715;51.660;7.082;2023-04-06T08:09:33;11.13;;;7.80;;
5085;SDS011;4715;51.660;7.082;2023-04-06T08:12:05;7.40;;;6.70;;
5085;SDS011;4715;51.660;7.082;2023-04-06T08:14:27;6.80;;;5.77;;
5085;SDS011;4715;51.660;7.082;2023-04-06T08:16:50;7.60;;;6.80;;
5085;SDS011;4715;51.660;7.082;2023-04-06T08:19:13;6.13;;;5.53;;
5085;SDS011;4715;51.660;7.082;2023-04-06T08:21:37;9.50;;;6.10;;
5085;SDS011;4715;51.660;7.082;2023-04-06T08:24:00;9.27;;;6.70;;
5085;SDS011;4715;51.660;7.082;2023-04-06T08:26:22;7.33;;;6.30;;
5085;SDS011;4715;51.660;7.082;2023-04-06T08:28:44;6.23;;;5.70;;
5085;SDS011;4715;51.660;7.082;2023-04-06T08:31:05;8.77;;;6.60;;
5085;SDS011;4715;51.660;7.082;2023-04-06T08:33:28;10.80;;;7.00;;
5085;SDS011;4715;51.660;7.082;2023-04-06T08:35:51;8.40;;;6.67;;
5085;SDS011;4715;51.660;7.082;2023-04-06T08:38:13;9.30;;;6.80;;
5085;SDS011;4715;51.660;7.082;2023-04-06T08:40:36;7.77;;;5.70;;
5085;SDS011;4715;51.660;7.082;2023-04-06T08:42:59;7.07;;;6.07;;
5085;SDS011;4715;51.660;7.082;2023-04-06T08:45:28;9.73;;;7.10;;
5085;SDS011;4715;51.660;7.082;2023-04-06T08:47:51;13.90;;;9.87;;
5085;SDS011;4715;51.660;7.082;2023-04-06T08:50:13;11.13;;;7.37;;
5085;SDS011;4715;51.660;7.082;2023-04-06T08:52:38;8.60;;;7.70;;
5085;SDS011;4715;51.660;7.082;2023-04-06T08:55:04;11.07;;;8.03;;
5085;SDS011;4715;51.660;7.082;2023-04-06T08:57:27;10.77;;;8.43;;
5085;SDS011;4715;51.660;7.082;2023-04-06T08:59:51;12.27;;;8.30;;
5085;SDS011;4715;51.660;7.082;2023-04-06T09:02:15;10.73;;;7.00;;
5085;SDS011;4715;51.660;7.082;2023-04-06T09:04:39;7.40;;;6.60;;
5085;SDS011;4715;51.660;7.082;2023-04-06T09:07:01;8.17;;;7.30;;
5085;SDS011;4715;51.660;7.082;2023-04-06T09:09:24;8.27;;;6.80;;
5085;SDS011;4715;51.660;7.082;2023-04-06T09:11:46;6.53;;;5.93;;
5085;SDS011;4715;51.660;7.082;2023-04-06T09:14:09;10.33;;;7.40;;
5085;SDS011;4715;51.660;7.082;2023-04-06T09:16:38;7.47;;;6.77;;
5085;SDS011;4715;51.660;7.082;2023-04-06T09:19:03;9.10;;;8.20;;
5085;SDS011;4715;51.660;7.082;2023-04-06T09:21:26;9.87;;;7.43;;
5085;SDS011;4715;51.660;7.082;2023-04-06T09:23:57;9.40;;;8.03;;
5085;SDS011;4715;51.660;7.082;2023-04-06T09:26:21;8.67;;;7.33;;
5085;SDS011;4715;51.660;7.082;2023-04-06T09:28:46;14.80;;;9.37;;
5085;SDS011;4715;51.660;7.082;2023-04-06T09:31:09;10.00;;;8.47;;
5085;SDS011;4715;51.660;7.082;2023-04-06T09:33:31;11.30;;;9.33;;
5085;SDS011;4715;51.660;7.082;2023-04-06T09:35:53;11.70;;;8.40;;
5085;SDS011;4715;51.660;7.082;2023-04-06T09:38:17;8.87;;;7.70;;
5085;SDS011;4715;51.660;7.082;2023-04-06T09:40:47;13.70;;;8.33;;
5085;SDS011;4715;51.660;7.082;2023-04-06T09:43:11;8.73;;;7.33;;
5085;SDS011;4715;51.660;7.082;2023-04-06T09:45:33;9.13;;;7.50;;
5085;SDS011;4715;51.660;7.082;2023-04-06T09:47:55;7.90;;;7.00;;
5085;SDS011;4715;51.660;7.082;2023-04-06T09:50:18;12.80;;;8.30;;
5085;SDS011;4715;51.660;7.082;2023-04-06T09:52:41;15.03;;;8.17;;
5085;SDS011;4715;51.660;7.082;2023-04-06T09:55:08;18.17;;;10.70;;
5085;SDS011;4715;51.660;7.082;2023-04-06T09:57:32;12.07;;;9.10;;
5085;SDS011;4715;51.660;7.082;2023-04-06T10:00:05;10.70;;;8.50;;
5085;SDS011;4715;51.660;7.082;2023-04-06T10:02:32;14.43;;;8.80;;
5085;SDS011;4715;51.660;7.082;2023-04-06T10:04:59;12.13;;;9.23;;
5085;SDS011;4715;51.660;7.082;2023-04-06T10:07:26;18.13;;;10.67;;
5085;SDS011;4715;51.660;7.082;2023-04-06T10:09:49;11.10;;;9.03;;
5085;SDS011;4715;51.660;7.082;2023-04-06T10:12:14;12.03;;;9.60;;
5085;SDS011;4715;51.660;7.082;2023-04-06T10:14:38;18.83;;;13.00;;
5085;SDS011;4715;51.660;7.082;2023-04-06T10:17:06;14.93;;;11.20;;
5085;SDS011;4715;51.660;7.082;2023-04-06T10:19:32;18.37;;;11.43;;
5085;SDS011;4715;51.660;7.082;2023-04-06T10:22:00;14.57;;;10.67;;
5085;SDS011;4715;51.660;7.082;2023-04-06T10:24:29;13.43;;;10.10;;
5085;SDS011;4715;51.660;7.082;2023-04-06T10:26:58;18.30;;;10.10;;
5085;SDS011;4715;51.660;7.082;2023-04-06T10:29:22;16.40;;;10.53;;
5085;SDS011;4715;51.660;7.082;2023-04-06T10:31:44;13.57;;;9.83;;
5085;SDS011;4715;51.660;7.082;2023-04-06T10:34:11;14.90;;;9.80;;
5085;SDS011;4715;51.660;7.082;2023-04-06T10:36:34;20.17;;;11.30;;
5085;SDS011;4715;51.660;7.082;2023-04-06T10:38:57;14.17;;;10.50;;
5085;SDS011;4715;51.660;7.082;2023-04-06T10:41:20;15.60;;;11.30;;
5085;SDS011;4715;51.660;7.082;2023-04-06T10:43:42;17.40;;;10.57;;
5085;SDS011;4715;51.660;7.082;2023-04-06T10:46:04;10.60;;;9.50;;
5085;SDS011;4715;51.660;7.082;2023-04-06T10:48:36;18.43;;;11.73;;
5085;SDS011;4715;51.660;7.082;2023-04-06T10:51:06;17.07;;;11.50;;
5085;SDS011;4715;51.660;7.082;2023-04-06T10:53:30;18.07;;;11.93;;
5085;SDS011;4715;51.660;7.082;2023-04-06T10:55:56;19.20;;;12.37;;
5085;SDS011;4715;51.660;7.082;2023-04-06T10:58:19;16.53;;;12.07;;
5085;SDS011;4715;51.660;7.082;2023-04-06T11:00:43;16.60;;;12.17;;
5085;SDS011;4715;51.660;7.082;2023-04-06T11:03:06;19.97;;;15.10;;
5085;SDS011;4715;51.660;7.082;2023-04-06T11:05:28;14.93;;;12.10;;
5085;SDS011;4715;51.660;7.082;2023-04-06T11:07:52;19.43;;;12.50;;
5085;SDS011;4715;51.660;7.082;2023-04-06T11:10:20;17.00;;;11.77;;
5085;SDS011;4715;51.660;7.082;2023-04-06T11:12:43;16.50;;;11.50;;
5085;SDS011;4715;51.660;7.082;2023-04-06T11:15:07;12.20;;;9.43;;
5085;SDS011;4715;51.660;7.082;2023-04-06T11:17:29;16.23;;;10.70;;
5085;SDS011;4715;51.660;7.082;2023-04-06T11:19:52;14.17;;;11.50;;
5085;SDS011;4715;51.660;7.082;2023-04-06T11:22:14;16.80;;;11.30;;
5085;SDS011;4715;51.660;7.082;2023-04-06T11:24:37;18.77;;;12.70;;
5085;SDS011;4715;51.660;7.082;2023-04-06T11:27:00;21.47;;;14.13;;
5085;SDS011;4715;51.660;7.082;2023-04-06T11:29:22;23.27;;;14.10;;
5085;SDS011;4715;51.660;7.082;2023-04-06T11:31:46;24.67;;;15.03;;
5085;SDS011;4715;51.660;7.082;2023-04-06T11:34:10;21.47;;;15.50;;
5085;SDS011;4715;51.660;7.082;2023-04-06T11:36:32;19.03;;;13.80;;
5085;SDS011;4715;51.660;7.082;2023-04-06T11:38:56;21.63;;;14.83;;
5085;SDS011;4715;51.660;7.082;2023-04-06T11:41:22;20.13;;;14.43;;
5085;SDS011;4715;51.660;7.082;2023-04-06T11:43:46;18.93;;;13.53;;
5085;SDS011;4715;51.660;7.082;2023-04-06T11:46:08;22.63;;;14.77;;
5085;SDS011;4715;51.660;7.082;2023-04-06T11:48:32;23.20;;;15.63;;
5085;SDS011;4715;51.660;7.082;2023-04-06T11:51:05;19.23;;;12.63;;
5085;SDS011;4715;51.660;7.082;2023-04-06T11:53:27;22.30;;;14.50;;
5085;SDS011;4715;51.660;7.082;2023-04-06T11:55:50;22.43;;;14.93;;
5085;SDS011;4715;51.660;7.082;2023-04-06T11:58:13;22.50;;;14.27;;
5085;SDS011;4715;51.660;7.082;2023-04-06T12:00:38;22.60;;;14.97;;
5085;SDS011;4715;51.660;7.082;2023-04-06T12:03:05;18.03;;;12.57;;
5085;SDS011;4715;51.660;7.082;2023-04-06T12:05:29;16.57;;;11.93;;
5085;SDS011;4715;51.660;7.082;2023-04-06T12:07:52;17.60;;;12.37;;
5085;SDS011;4715;51.660;7.082;2023-04-06T12:10:18;18.13;;;12.50;;
5085;SDS011;4715;51.660;7.082;2023-04-06T12:12:42;19.67;;;11.80;;
5085;SDS011;4715;51.660;7.082;2023-04-06T12:15:08;17.73;;;11.77;;
5085;SDS011;4715;51.660;7.082;2023-04-06T12:17:30;19.40;;;10.67;;
5085;SDS011;4715;51.660;7.082;2023-04-06T12:19:53;20.27;;;11.67;;
5085;SDS011;4715;51.660;7.082;2023-04-06T12:22:18;25.70;;;12.40;;
5085;SDS011;4715;51.660;7.082;2023-04-06T12:24:40;19.80;;;12.90;;
5085;SDS011;4715;51.660;7.082;2023-04-06T12:27:02;16.20;;;11.90;;
5085;SDS011;4715;51.660;7.082;2023-04-06T12:29:24;16.47;;;10.83;;
5085;SDS011;4715;51.660;7.082;2023-04-06T12:31:47;19.57;;;11.40;;
5085;SDS011;4715;51.660;7.082;2023-04-06T12:34:13;17.00;;;11.30;;
5085;SDS011;4715;51.660;7.082;2023-04-06T12:36:36;16.00;;;11.40;;
5085;SDS011;4715;51.660;7.082;2023-04-06T12:38:58;17.13;;;10.87;;
5085;SDS011;4715;51.660;7.082;2023-04-06T12:41:22;23.60;;;11.53;;
5085;SDS011;4715;51.660;7.082;2023-04-06T12:43:44;17.93;;;10.87;;
5085;SDS011;4715;51.660;7.082;2023-04-06T12:46:07;19.70;;;11.03;;
5085;SDS011;4715;51.660;7.082;2023-04-06T12:48:30;17.73;;;11.60;;
5085;SDS011;4715;51.660;7.082;2023-04-06T12:50:56;20.53;;;11.73;;
5085;SDS011;4715;51.660;7.082;2023-04-06T12:53:18;18.03;;;11.57;;
5085;SDS011;4715;51.660;7.082;2023-04-06T12:55:40;23.70;;;12.50;;
5085;SDS011;4715;51.660;7.082;2023-04-06T12:58:02;21.50;;;11.17;;
5085;SDS011;4715;51.660;7.082;2023-04-06T13:00:25;18.97;;;11.23;;
5085;SDS011;4715;51.660;7.082;2023-04-06T13:02:47;18.80;;;12.03;;
5085;SDS011;4715;51.660;7.082;2023-04-06T13:05:10;20.77;;;12.67;;
5085;SDS011;4715;51.660;7.082;2023-04-06T13:07:33;20.83;;;13.20;;
5085;SDS011;4715;51.660;7.082;2023-04-06T13:09:55;18.63;;;12.60;;
5085;SDS011;4715;51.660;7.082;2023-04-06T13:12:17;23.40;;;11.33;;
5085;SDS011;4715;51.660;7.082;2023-04-06T13:14:40;20.57;;;11.53;;
5085;SDS011;4715;51.660;7.082;2023-04-06T13:17:02;17.27;;;11.70;;
5085;SDS011;4715;51.660;7.082;2023-04-06T13:19:25;21.30;;;12.70;;
5085;SDS011;4715;51.660;7.082;2023-04-06T13:21:52;23.63;;;14.50;;
5085;SDS011;4715;51.660;7.082;2023-04-06T13:24:16;19.67;;;12.57;;
5085;SDS011;4715;51.660;7.082;2023-04-06T13:26:47;18.37;;;12.60;;
5085;SDS011;4715;51.660;7.082;2023-04-06T13:29:13;14.10;;;10.57;;
5085;SDS011;4715;51.660;7.082;2023-04-06T13:31:36;19.00;;;12.13;;
5085;SDS011;4715;51.660;7.082;2023-04-06T13:33:58;21.43;;;12.00;;
5085;SDS011;4715;51.660;7.082;2023-04-06T13:36:24;17.80;;;12.20;;
5085;SDS011;4715;51.660;7.082;2023-04-06T13:38:49;15.77;;;11.17;;
5085;SDS011;4715;51.660;7.082;2023-04-06T13:41:17;11.80;;;9.90;;
5085;SDS011;4715;51.660;7.082;2023-04-06T13:43:41;13.07;;;10.60;;
5085;SDS011;4715;51.660;7.082;2023-04-06T13:46:08;11.60;;;8.73;;
5085;SDS011;4715;51.660;7.082;2023-04-06T13:48:30;13.30;;;9.47;;
5085;SDS011;4715;51.660;7.082;2023-04-06T13:50:54;19.73;;;10.90;;
5085;SDS011;4715;51.660;7.082;2023-04-06T13:53:16;14.27;;;10.27;;
5085;SDS011;4715;51.660;7.082;2023-04-06T13:55:39;16.33;;;11.37;;
5085;SDS011;4715;51.660;7.082;2023-04-06T13:58:06;17.80;;;11.10;;
5085;SDS011;4715;51.660;7.082;2023-04-06T14:00:30;14.03;;;9.57;;
5085;SDS011;4715;51.660;7.082;2023-04-06T14:02:55;17.37;;;7.87;;
5085;SDS011;4715;51.660;7.082;2023-04-06T14:05:18;10.53;;;8.23;;
5085;SDS011;4715;51.660;7.082;2023-04-06T14:07:40;13.60;;;7.83;;
5085;SDS011;4715;51.660;7.082;2023-04-06T14:10:02;10.33;;;7.13;;
5085;SDS011;4715;51.660;7.082;2023-04-06T14:12:27;12.13;;;8.53;;
5085;SDS011;4715;51.660;7.082;2023-04-06T14:14:49;9.60;;;7.20;;
5085;SDS011;4715;51.660;7.082;2023-04-06T14:17:15;12.90;;;7.43;;
5085;SDS011;4715;51.660;7.082;2023-04-06T14:19:37;10.60;;;7.80;;
5085;SDS011;4715;51.660;7.082;2023-04-06T14:22:00;10.23;;;7.77;;
5085;SDS011;4715;51.660;7.082;2023-04-06T14:24:23;11.77;;;7.47;;
5085;SDS011;4715;51.660;7.082;2023-04-06T14:26:46;12.13;;;9.07;;
5085;SDS011;4715;51.660;7.082;2023-04-06T14:29:10;15.20;;;8.70;;
5085;SDS011;4715;51.660;7.082;2023-04-06T14:31:33;11.30;;;8.87;;
5085;SDS011;4715;51.660;7.082;2023-04-06T14:33:57;14.87;;;10.27;;
5085;SDS011;4715;51.660;7.082;2023-04-06T14:36:22;17.30;;;9.10;;
5085;SDS011;4715;51.660;7.082;2023-04-06T14:38:47;14.30;;;10.37;;
5085;SDS011;4715;51.660;7.082;2023-04-06T14:41:14;13.33;;;8.67;;